Terminal Aerodrome Forecast
Issued by NWS Bismarck, ND

Home | Current Version | Previous Version | Text Only | Print | Product List | Glossary Off
Versions: 1 2 3 4 5 6 7 8 9 10 11 12 13 14 15 16 17 18

000
FTUS43 KBIS 251700
TAFISN
TAF
KISN 251738Z 2518/2618 30010KT P6SM OVC035
     FM260200 VRB03KT P6SM SCT035 BKN180=

USA.gov is the U.S. government's official web portal to all federal, state and local government web resources and services.